Time;durP1;ratioP1;P1;durP2;ratioP2;P2;SDS_P1;SDS_P2;PMS_P1;PMS_P2;Temp;Humidity;BMP_temperature;BMP_pressure;BME280_temperature;BME280_humidity;BME280_pressure;Samples;Min_cycle;Max_cycle;Signal;HPM_P1;HPM_P2
2023/02/04 00:01:55;;;;;;;32.87;7.60;;;;;;;;;;5007277;28;20207;-69
2023/02/04 00:04:20;;;;;;;41.97;7.70;;;;;;;;;;5006836;28;20192;-69
2023/02/04 00:06:45;;;;;;;26.30;6.77;;;;;;;;;;5005592;28;20184;-69
2023/02/04 00:09:10;;;;;;;30.40;6.87;;;;;;;;;;5006884;28;20208;-70
2023/02/04 00:11:36;;;;;;;43.00;8.03;;;;;;;;;;5009024;28;20448;-69
2023/02/04 00:14:01;;;;;;;26.80;6.80;;;;;;;;;;5008303;28;20664;-69
2023/02/04 00:16:26;;;;;;;31.77;6.13;;;;;;;;;;5004541;28;20177;-70
2023/02/04 00:18:51;;;;;;;29.90;6.73;;;;;;;;;;5001483;28;20177;-70
2023/02/04 00:21:17;;;;;;;35.57;6.27;;;;;;;;;;5005433;28;20251;-69
2023/02/04 00:23:42;;;;;;;38.47;7.70;;;;;;;;;;5000088;28;20212;-70
2023/02/04 00:26:07;;;;;;;30.63;7.43;;;;;;;;;;5000896;28;20245;-69
2023/02/04 00:28:32;;;;;;;32.70;7.53;;;;;;;;;;5001010;28;20181;-70
2023/02/04 00:30:58;;;;;;;29.90;6.13;;;;;;;;;;4991357;28;20811;-68
2023/02/04 00:33:23;;;;;;;31.67;6.70;;;;;;;;;;4997028;28;20288;-68
2023/02/04 00:35:48;;;;;;;35.90;6.87;;;;;;;;;;4996331;28;20182;-69
2023/02/04 00:38:14;;;;;;;45.23;9.60;;;;;;;;;;5003105;28;20649;-69
2023/02/04 00:40:39;;;;;;;22.97;7.43;;;;;;;;;;5002396;28;20205;-69
2023/02/04 00:43:04;;;;;;;20.77;4.63;;;;;;;;;;5002633;28;20287;-69
2023/02/04 00:45:29;;;;;;;22.53;4.37;;;;;;;;;;5004628;28;20191;-68
2023/02/04 00:47:56;;;;;;;18.20;4.90;;;;;;;;;;5004199;28;20583;-68
2023/02/04 00:50:21;;;;;;;19.00;4.50;;;;;;;;;;5003493;28;20212;-68
2023/02/04 00:52:46;;;;;;;17.70;3.03;;;;;;;;;;5005328;28;20947;-69
2023/02/04 00:55:14;;;;;;;15.03;3.47;;;;;;;;;;5006883;28;20223;-69
2023/02/04 00:57:39;;;;;;;13.13;3.50;;;;;;;;;;5008428;28;20661;-69
2023/02/04 01:00:05;;;;;;;15.07;3.47;;;;;;;;;;5008695;28;20416;-69
2023/02/04 01:02:31;;;;;;;10.60;2.80;;;;;;;;;;5006902;28;20220;-69
2023/02/04 01:04:56;;;;;;;12.30;3.10;;;;;;;;;;5008957;28;20582;-69
2023/02/04 01:07:21;;;;;;;12.60;3.13;;;;;;;;;;5006137;28;20188;-69
2023/02/04 01:09:46;;;;;;;13.47;3.60;;;;;;;;;;5005911;28;20189;-69
2023/02/04 01:12:12;;;;;;;13.90;3.00;;;;;;;;;;5008901;28;20267;-69
2023/02/04 01:14:37;;;;;;;11.67;2.60;;;;;;;;;;4993882;28;20223;-69
2023/02/04 01:17:02;;;;;;;10.37;2.70;;;;;;;;;;5012157;28;20272;-69
2023/02/04 01:19:27;;;;;;;13.50;3.40;;;;;;;;;;5010692;28;20630;-69
2023/02/04 01:21:53;;;;;;;13.53;3.70;;;;;;;;;;5010040;28;20250;-69
2023/02/04 01:24:18;;;;;;;15.40;3.27;;;;;;;;;;5008558;28;20185;-69
2023/02/04 01:26:43;;;;;;;20.27;3.70;;;;;;;;;;5006196;28;20196;-69
2023/02/04 01:29:09;;;;;;;19.03;4.03;;;;;;;;;;5011341;28;20176;-69
2023/02/04 01:31:34;;;;;;;10.10;2.60;;;;;;;;;;5004147;28;20216;-68
2023/02/04 01:34:00;;;;;;;15.17;3.40;;;;;;;;;;5004797;28;20188;-69
2023/02/04 01:36:25;;;;;;;15.83;3.27;;;;;;;;;;5006220;28;20594;-69
2023/02/04 01:38:50;;;;;;;8.00;2.73;;;;;;;;;;4987824;28;20189;-70
2023/02/04 01:41:17;;;;;;;17.43;3.23;;;;;;;;;;5001438;28;20242;-69
2023/02/04 01:43:42;;;;;;;11.93;2.90;;;;;;;;;;5009555;28;20232;-69
2023/02/04 01:46:08;;;;;;;12.40;3.13;;;;;;;;;;5008338;28;20428;-69
2023/02/04 01:48:33;;;;;;;12.43;3.03;;;;;;;;;;5000551;28;20307;-70
2023/02/04 01:51:02;;;;;;;11.73;3.30;;;;;;;;;;5004553;28;20353;-69
2023/02/04 01:53:27;;;;;;;14.33;3.33;;;;;;;;;;5005163;28;20205;-69
2023/02/04 01:55:53;;;;;;;15.93;3.53;;;;;;;;;;5003814;28;20955;-69
2023/02/04 01:58:18;;;;;;;11.37;2.93;;;;;;;;;;4991986;28;20264;-69
2023/02/04 02:00:43;;;;;;;11.30;3.10;;;;;;;;;;5004448;28;20216;-69
2023/02/04 02:03:10;;;;;;;12.47;3.10;;;;;;;;;;5003899;28;20231;-69
2023/02/04 02:05:40;;;;;;;11.63;3.47;;;;;;;;;;5008891;28;20577;-69
2023/02/04 02:08:06;;;;;;;14.13;3.33;;;;;;;;;;5004046;28;20730;-69
2023/02/04 02:10:32;;;;;;;12.03;3.07;;;;;;;;;;4991931;28;20475;-70
2023/02/04 02:12:57;;;;;;;14.77;2.77;;;;;;;;;;5008348;28;20670;-69
2023/02/04 02:15:23;;;;;;;10.03;3.00;;;;;;;;;;5008354;28;20845;-69
2023/02/04 02:17:49;;;;;;;9.73;3.10;;;;;;;;;;5009926;28;20189;-69
2023/02/04 02:20:15;;;;;;;10.60;3.23;;;;;;;;;;5008779;28;20954;-69
2023/02/04 02:22:40;;;;;;;13.30;3.07;;;;;;;;;;5009551;28;20181;-69
2023/02/04 02:25:10;;;;;;;15.20;2.90;;;;;;;;;;4985684;28;20920;-69
2023/02/04 02:27:35;;;;;;;11.97;3.10;;;;;;;;;;5007511;28;20530;-70
2023/02/04 02:30:00;;;;;;;14.30;3.70;;;;;;;;;;4991937;28;20431;-70
2023/02/04 02:32:26;;;;;;;15.80;3.07;;;;;;;;;;5009968;28;20201;-70
2023/02/04 02:34:51;;;;;;;11.13;2.90;;;;;;;;;;4994314;28;20638;-70
2023/02/04 02:37:16;;;;;;;16.20;3.53;;;;;;;;;;5006331;28;20209;-70
2023/02/04 02:39:43;;;;;;;14.93;3.13;;;;;;;;;;5003137;28;20181;-70
2023/02/04 02:42:09;;;;;;;12.33;2.93;;;;;;;;;;5004016;28;20216;-70
2023/02/04 02:44:34;;;;;;;12.73;2.53;;;;;;;;;;5001659;28;20436;-69
2023/02/04 02:47:00;;;;;;;13.00;3.17;;;;;;;;;;4999622;28;20646;-70
2023/02/04 02:49:25;;;;;;;9.50;2.43;;;;;;;;;;5004509;28;20588;-70
2023/02/04 02:51:50;;;;;;;10.10;2.80;;;;;;;;;;5002941;28;20690;-70
2023/02/04 02:54:19;;;;;;;13.57;2.37;;;;;;;;;;5003203;28;20627;-70
2023/02/04 02:56:44;;;;;;;11.23;2.43;;;;;;;;;;4999921;28;20635;-70
2023/02/04 02:59:13;;;;;;;11.43;3.00;;;;;;;;;;4998525;28;20450;-68
2023/02/04 03:01:39;;;;;;;9.37;3.00;;;;;;;;;;4996090;28;20227;-69
2023/02/04 03:04:04;;;;;;;11.90;3.00;;;;;;;;;;4994729;28;20435;-68
2023/02/04 03:06:29;;;;;;;15.37;3.23;;;;;;;;;;5002796;28;20177;-68
2023/02/04 03:08:55;;;;;;;9.60;2.67;;;;;;;;;;5000126;28;20595;-68
2023/02/04 03:11:21;;;;;;;11.47;2.60;;;;;;;;;;5001867;28;20220;-68
2023/02/04 03:13:46;;;;;;;12.60;2.37;;;;;;;;;;4999580;28;20444;-68
2023/02/04 03:16:12;;;;;;;6.77;2.00;;;;;;;;;;4994641;28;20196;-69
2023/02/04 03:18:37;;;;;;;7.33;1.80;;;;;;;;;;4977683;28;20204;-68
2023/02/04 03:21:04;;;;;;;10.23;2.57;;;;;;;;;;4983578;28;20200;-68
2023/02/04 03:23:32;;;;;;;8.20;2.37;;;;;;;;;;5002296;28;20716;-68
2023/02/04 03:25:57;;;;;;;11.47;3.00;;;;;;;;;;5000937;28;20440;-68
2023/02/04 03:28:22;;;;;;;6.23;1.80;;;;;;;;;;5002095;28;20506;-68
2023/02/04 03:30:52;;;;;;;11.10;2.50;;;;;;;;;;5003264;28;20303;-68
2023/02/04 03:33:17;;;;;;;5.80;2.23;;;;;;;;;;5005289;28;20201;-69
2023/02/04 03:35:43;;;;;;;8.50;2.53;;;;;;;;;;4987444;28;20446;-68
2023/02/04 03:38:08;;;;;;;14.30;2.57;;;;;;;;;;5006178;28;20601;-69
2023/02/04 03:40:33;;;;;;;9.03;2.50;;;;;;;;;;5006683;28;20211;-69
2023/02/04 03:42:59;;;;;;;8.97;2.83;;;;;;;;;;5001563;28;20270;-68
2023/02/04 03:45:24;;;;;;;11.97;2.80;;;;;;;;;;4980507;28;20595;-68
2023/02/04 03:47:49;;;;;;;12.50;3.20;;;;;;;;;;5000555;28;20199;-68
2023/02/04 03:50:15;;;;;;;11.37;2.47;;;;;;;;;;5001904;28;20201;-68
2023/02/04 03:52:40;;;;;;;14.23;2.50;;;;;;;;;;4999044;28;20250;-68
2023/02/04 03:55:06;;;;;;;10.10;2.37;;;;;;;;;;4999042;28;20263;-68
2023/02/04 03:57:31;;;;;;;10.83;2.40;;;;;;;;;;4999573;28;20630;-68
2023/02/04 03:59:56;;;;;;;7.80;2.03;;;;;;;;;;4997037;28;20564;-69
2023/02/04 04:02:21;;;;;;;17.63;2.80;;;;;;;;;;5000586;28;20208;-68
2023/02/04 04:04:47;;;;;;;7.97;2.50;;;;;;;;;;5004138;28;20630;-68
2023/02/04 04:07:12;;;;;;;5.73;1.90;;;;;;;;;;5002070;28;20394;-68
2023/02/04 04:09:37;;;;;;;12.63;2.90;;;;;;;;;;5006553;28;20177;-68
2023/02/04 04:12:03;;;;;;;9.00;2.70;;;;;;;;;;5005780;28;20215;-68
2023/02/04 04:14:28;;;;;;;8.97;2.00;;;;;;;;;;5003923;28;20184;-71
2023/02/04 04:16:53;;;;;;;11.70;2.73;;;;;;;;;;5005416;28;20432;-70
2023/02/04 04:19:19;;;;;;;6.70;2.17;;;;;;;;;;5007234;28;20216;-71
2023/02/04 04:21:44;;;;;;;5.87;2.27;;;;;;;;;;5009657;28;20338;-71
2023/02/04 04:24:09;;;;;;;6.60;2.00;;;;;;;;;;5009912;28;20268;-71
2023/02/04 04:26:34;;;;;;;11.50;2.67;;;;;;;;;;5007877;28;20254;-71
2023/02/04 04:29:00;;;;;;;8.70;2.00;;;;;;;;;;4988472;28;20193;-70
2023/02/04 04:31:25;;;;;;;7.80;2.13;;;;;;;;;;5007310;28;20217;-71
2023/02/04 04:33:50;;;;;;;7.57;2.20;;;;;;;;;;5009482;28;20549;-71
2023/02/04 04:36:15;;;;;;;10.40;3.03;;;;;;;;;;5008632;28;20204;-71
2023/02/04 04:38:41;;;;;;;11.80;2.50;;;;;;;;;;5021030;23;20239;-73
2023/02/04 04:41:06;;;;;;;7.93;2.40;;;;;;;;;;5017567;28;20184;-75
2023/02/04 04:43:31;;;;;;;7.20;1.77;;;;;;;;;;5020128;28;20176;-73
2023/02/04 04:45:57;;;;;;;7.20;2.03;;;;;;;;;;5000780;28;20181;-73
2023/02/04 04:48:23;;;;;;;8.37;2.10;;;;;;;;;;5021580;28;20285;-73
2023/02/04 04:50:49;;;;;;;16.97;3.17;;;;;;;;;;5024753;28;20255;-73
2023/02/04 04:53:14;;;;;;;8.07;2.40;;;;;;;;;;5017471;28;20471;-73
2023/02/04 04:55:39;;;;;;;6.73;1.90;;;;;;;;;;5020844;28;20641;-73
2023/02/04 04:58:06;;;;;;;7.03;2.83;;;;;;;;;;5022972;28;20298;-73
2023/02/04 05:00:31;;;;;;;11.80;2.30;;;;;;;;;;5019083;28;20653;-74
2023/02/04 05:02:56;;;;;;;8.30;1.97;;;;;;;;;;5021362;28;20431;-73
2023/02/04 05:05:22;;;;;;;7.43;1.77;;;;;;;;;;5022137;28;20188;-73
2023/02/04 05:07:47;;;;;;;6.60;2.03;;;;;;;;;;5021316;28;20200;-73
2023/02/04 05:10:12;;;;;;;9.10;2.00;;;;;;;;;;5023408;28;20219;-73
2023/02/04 05:12:40;;;;;;;9.37;2.03;;;;;;;;;;5017747;28;20235;-73
2023/02/04 05:15:05;;;;;;;9.27;1.83;;;;;;;;;;5023846;28;20176;-73
2023/02/04 05:17:31;;;;;;;9.80;1.77;;;;;;;;;;5005771;28;20454;-73
2023/02/04 05:19:56;;;;;;;5.47;1.50;;;;;;;;;;5020605;28;20177;-73
2023/02/04 05:22:21;;;;;;;8.93;2.07;;;;;;;;;;5022273;28;20279;-74
2023/02/04 05:24:46;;;;;;;8.23;1.93;;;;;;;;;;5022059;28;20561;-73
2023/02/04 05:27:12;;;;;;;11.13;2.33;;;;;;;;;;5023298;28;20707;-73
2023/02/04 05:29:37;;;;;;;7.00;1.97;;;;;;;;;;5020811;28;20184;-73
2023/02/04 05:32:02;;;;;;;6.50;1.83;;;;;;;;;;5023101;28;20200;-73
2023/02/04 05:34:28;;;;;;;9.43;2.00;;;;;;;;;;5021512;28;20204;-73
2023/02/04 05:36:53;;;;;;;7.23;1.70;;;;;;;;;;5021142;28;20177;-73
2023/02/04 05:39:18;;;;;;;7.13;1.80;;;;;;;;;;5023346;28;20691;-74
2023/02/04 05:41:44;;;;;;;5.20;1.47;;;;;;;;;;5023715;28;20189;-73
2023/02/04 05:44:09;;;;;;;8.80;1.83;;;;;;;;;;5028379;28;20203;-73
2023/02/04 05:46:35;;;;;;;7.20;1.83;;;;;;;;;;5028428;28;20667;-73
2023/02/04 05:49:03;;;;;;;5.10;1.70;;;;;;;;;;5028693;28;20235;-73
2023/02/04 05:51:28;;;;;;;11.20;1.83;;;;;;;;;;5003382;28;21043;-73
2023/02/04 05:53:53;;;;;;;7.33;2.10;;;;;;;;;;5028095;28;20460;-73
2023/02/04 05:56:19;;;;;;;10.53;1.93;;;;;;;;;;5031082;28;20172;-73
2023/02/04 05:58:44;;;;;;;5.13;1.50;;;;;;;;;;5031514;28;20201;-73
2023/02/04 06:01:09;;;;;;;7.30;1.60;;;;;;;;;;5031878;28;20188;-73
2023/02/04 06:03:35;;;;;;;10.63;2.20;;;;;;;;;;5031637;28;20176;-73
2023/02/04 06:06:00;;;;;;;3.67;1.20;;;;;;;;;;5031335;28;20232;-73
2023/02/04 06:08:25;;;;;;;3.57;1.70;;;;;;;;;;5028606;28;20204;-73
2023/02/04 06:10:50;;;;;;;7.77;1.43;;;;;;;;;;5012528;28;20187;-73
2023/02/04 06:13:16;;;;;;;4.97;1.30;;;;;;;;;;5031137;28;20662;-73
2023/02/04 06:15:41;;;;;;;7.30;1.53;;;;;;;;;;5031800;28;20260;-74
2023/02/04 06:18:06;;;;;;;9.07;2.10;;;;;;;;;;5031413;28;20208;-74
2023/02/04 06:20:32;;;;;;;5.47;1.37;;;;;;;;;;5033561;28;20172;-73
2023/02/04 06:22:57;;;;;;;4.67;1.30;;;;;;;;;;5031538;28;20526;-74
2023/02/04 06:25:23;;;;;;;6.73;1.77;;;;;;;;;;5030827;28;20271;-73
2023/02/04 06:27:48;;;;;;;5.60;1.13;;;;;;;;;;5029387;28;20219;-74
2023/02/04 06:30:14;;;;;;;3.57;1.27;;;;;;;;;;5029992;28;21166;-73
2023/02/04 06:32:39;;;;;;;6.50;1.63;;;;;;;;;;5031696;28;20722;-73
2023/02/04 06:35:05;;;;;;;6.30;1.47;;;;;;;;;;5031393;28;20231;-73
2023/02/04 06:37:30;;;;;;;6.00;1.83;;;;;;;;;;5027623;28;20215;-73
2023/02/04 06:39:56;;;;;;;3.70;1.40;;;;;;;;;;5007807;28;20177;-73
2023/02/04 06:42:21;;;;;;;5.13;1.20;;;;;;;;;;5028417;28;20271;-73
2023/02/04 06:44:47;;;;;;;4.38;1.30;;;;;;;;;;5022261;28;20437;-74
2023/02/04 06:47:12;;;;;;;9.00;1.80;;;;;;;;;;5024808;28;20192;-74
2023/02/04 06:49:37;;;;;;;5.43;1.53;;;;;;;;;;5006422;28;20189;-73
2023/02/04 06:52:03;;;;;;;8.97;1.40;;;;;;;;;;5023197;28;20295;-74
2023/02/04 06:54:28;;;;;;;4.60;1.20;;;;;;;;;;5027541;28;20233;-74
2023/02/04 06:56:53;;;;;;;3.00;1.17;;;;;;;;;;5027871;28;20188;-74
2023/02/04 06:59:19;;;;;;;5.60;1.63;;;;;;;;;;5024819;28;20584;-74
2023/02/04 07:01:44;;;;;;;3.93;1.33;;;;;;;;;;5024180;28;20196;-74
2023/02/04 07:04:09;;;;;;;5.57;1.33;;;;;;;;;;5025996;28;20196;-75
2023/02/04 07:06:35;;;;;;;3.80;1.20;;;;;;;;;;5001159;28;20968;-74
2023/02/04 07:09:00;;;;;;;3.90;1.40;;;;;;;;;;5004955;28;20204;-74
2023/02/04 07:11:25;;;;;;;4.53;1.37;;;;;;;;;;5014260;28;21089;-74
2023/02/04 07:13:50;;;;;;;3.40;1.43;;;;;;;;;;5011449;28;20710;-74
2023/02/04 07:16:18;;;;;;;7.37;1.50;;;;;;;;;;5019689;28;20185;-74
2023/02/04 07:18:43;;;;;;;3.17;1.30;;;;;;;;;;5017554;28;20215;-74
2023/02/04 07:21:09;;;;;;;2.50;0.90;;;;;;;;;;5017427;28;20804;-74
2023/02/04 07:23:34;;;;;;;3.70;1.47;;;;;;;;;;5013615;28;20701;-74
2023/02/04 07:25:59;;;;;;;4.03;1.13;;;;;;;;;;5020524;28;20191;-74
2023/02/04 07:28:25;;;;;;;3.00;1.30;;;;;;;;;;5022623;28;20207;-75
2023/02/04 07:30:50;;;;;;;2.20;1.30;;;;;;;;;;5028015;28;20267;-74
2023/02/04 07:33:16;;;;;;;3.70;1.50;;;;;;;;;;5031818;28;20212;-74
2023/02/04 07:35:41;;;;;;;4.27;1.53;;;;;;;;;;5021021;28;20184;-74
2023/02/04 07:38:06;;;;;;;5.60;1.63;;;;;;;;;;5017397;28;20634;-74
2023/02/04 07:40:32;;;;;;;5.77;1.43;;;;;;;;;;5020495;28;20546;-74
2023/02/04 07:42:57;;;;;;;4.67;1.60;;;;;;;;;;5012003;28;20551;-75
2023/02/04 07:45:25;;;;;;;4.70;1.77;;;;;;;;;;5001710;28;20712;-74
2023/02/04 07:47:50;;;;;;;3.77;2.10;;;;;;;;;;5016471;28;20203;-74
2023/02/04 07:50:15;;;;;;;3.30;1.67;;;;;;;;;;5015097;28;20438;-74
2023/02/04 07:52:41;;;;;;;2.53;1.30;;;;;;;;;;5010796;28;20199;-74
2023/02/04 07:55:07;;;;;;;3.53;1.50;;;;;;;;;;5017718;28;20640;-74
2023/02/04 07:57:35;;;;;;;2.20;1.30;;;;;;;;;;5022350;28;20258;-74
2023/02/04 08:00:00;;;;;;;5.43;1.70;;;;;;;;;;5018570;28;20435;-74
2023/02/04 08:02:26;;;;;;;4.80;1.43;;;;;;;;;;5015956;28;21165;-74
2023/02/04 08:04:54;;;;;;;5.40;1.80;;;;;;;;;;5017690;28;20263;-73
2023/02/04 08:07:19;;;;;;;2.90;1.63;;;;;;;;;;5016300;28;20751;-74
2023/02/04 08:09:45;;;;;;;4.30;1.33;;;;;;;;;;5018436;28;20827;-73
2023/02/04 08:12:11;;;;;;;4.50;1.60;;;;;;;;;;5017013;28;20204;-74
2023/02/04 08:14:36;;;;;;;3.83;1.40;;;;;;;;;;5017575;28;20951;-74
2023/02/04 08:17:01;;;;;;;3.40;1.77;;;;;;;;;;5018052;28;20671;-75
2023/02/04 08:19:27;;;;;;;4.50;1.63;;;;;;;;;;5016855;28;20715;-74
2023/02/04 08:21:54;;;;;;;4.20;1.47;;;;;;;;;;5017380;28;20180;-75
2023/02/04 08:24:19;;;;;;;2.33;1.40;;;;;;;;;;5018220;28;20188;-75
2023/02/04 08:26:45;;;;;;;2.90;1.33;;;;;;;;;;5014169;28;20435;-75
2023/02/04 08:29:10;;;;;;;3.30;1.50;;;;;;;;;;5014569;28;20211;-75
2023/02/04 08:31:38;;;;;;;2.00;1.50;;;;;;;;;;5009389;28;20185;-75
2023/02/04 08:34:04;;;;;;;4.93;1.80;;;;;;;;;;5020174;28;20183;-75
2023/02/04 08:36:31;;;;;;;3.03;1.70;;;;;;;;;;5019174;28;20850;-75
2023/02/04 08:38:57;;;;;;;5.80;1.97;;;;;;;;;;4994539;28;20557;-76
2023/02/04 08:41:22;;;;;;;3.80;1.80;;;;;;;;;;5000288;28;20527;-75
2023/02/04 08:43:50;;;;;;;2.77;1.73;;;;;;;;;;4974137;28;20192;-75
2023/02/04 08:46:15;;;;;;;4.90;2.00;;;;;;;;;;4995195;28;20275;-75
2023/02/04 08:48:40;;;;;;;2.03;1.50;;;;;;;;;;4997220;28;20452;-76
2023/02/04 08:51:06;;;;;;;4.60;1.43;;;;;;;;;;5002102;28;20189;-76
2023/02/04 08:53:31;;;;;;;4.33;1.67;;;;;;;;;;5001312;28;20208;-75
2023/02/04 08:55:56;;;;;;;3.20;1.70;;;;;;;;;;4999370;28;20627;-75
2023/02/04 08:58:22;;;;;;;3.43;1.50;;;;;;;;;;4999901;28;20216;-75
2023/02/04 09:00:47;;;;;;;5.47;1.87;;;;;;;;;;5003007;28;20700;-75
2023/02/04 09:03:12;;;;;;;2.80;1.90;;;;;;;;;;5004107;28;20580;-75
2023/02/04 09:05:37;;;;;;;3.57;1.80;;;;;;;;;;4999998;28;20577;-75
2023/02/04 09:08:03;;;;;;;2.90;1.70;;;;;;;;;;5001951;28;20200;-76
2023/02/04 09:10:28;;;;;;;3.87;1.70;;;;;;;;;;4980336;28;20282;-73
2023/02/04 09:12:54;;;;;;;3.10;1.70;;;;;;;;;;5000196;28;20233;-74
2023/02/04 09:15:21;;;;;;;2.40;1.43;;;;;;;;;;5000603;28;20240;-74
2023/02/04 09:17:46;;;;;;;3.37;2.33;;;;;;;;;;5004440;28;20521;-74
2023/02/04 09:20:11;;;;;;;3.73;2.30;;;;;;;;;;5011466;28;21165;-73
2023/02/04 09:22:37;;;;;;;3.90;1.73;;;;;;;;;;5005133;28;20205;-73
2023/02/04 09:25:03;;;;;;;3.03;2.00;;;;;;;;;;5011484;28;20184;-73
2023/02/04 09:27:28;;;;;;;3.97;1.87;;;;;;;;;;5010888;28;20267;-74
2023/02/04 09:29:53;;;;;;;2.67;1.67;;;;;;;;;;5016309;28;20455;-73
2023/02/04 09:32:18;;;;;;;2.30;2.10;;;;;;;;;;5015199;28;20205;-73
2023/02/04 09:34:44;;;;;;;5.23;2.00;;;;;;;;;;5015834;28;20181;-74
2023/02/04 09:37:11;;;;;;;2.60;2.10;;;;;;;;;;5014897;28;20188;-74
2023/02/04 09:39:39;;;;;;;2.83;1.77;;;;;;;;;;5035315;28;20195;-73
2023/02/04 09:42:04;;;;;;;3.30;1.77;;;;;;;;;;5034031;28;20423;-73
2023/02/04 09:44:30;;;;;;;3.40;1.93;;;;;;;;;;5033742;28;20926;-73
2023/02/04 09:46:57;;;;;;;8.67;2.37;;;;;;;;;;5034979;28;20184;-73
2023/02/04 09:49:22;;;;;;;3.63;2.40;;;;;;;;;;5033407;28;20558;-74
2023/02/04 09:51:48;;;;;;;2.40;2.10;;;;;;;;;;5033340;28;20426;-73
2023/02/04 09:54:15;;;;;;;4.00;2.10;;;;;;;;;;5034315;28;20194;-73
2023/02/04 09:56:40;;;;;;;5.13;2.40;;;;;;;;;;5031820;28;20407;-73
2023/02/04 09:59:12;;;;;;;4.10;2.40;;;;;;;;;;5033254;28;20529;-74
2023/02/04 10:01:38;;;;;;;3.00;2.53;;;;;;;;;;5034997;28;20222;-73
2023/02/04 10:04:03;;;;;;;2.70;2.17;;;;;;;;;;5033529;28;20398;-73
2023/02/04 10:06:29;;;;;;;3.33;1.90;;;;;;;;;;5033841;28;20179;-73
2023/02/04 10:08:54;;;;;;;5.20;2.40;;;;;;;;;;5032178;28;20198;-74
2023/02/04 10:11:21;;;;;;;2.87;2.10;;;;;;;;;;5012845;28;20231;-73
2023/02/04 10:13:50;;;;;;;3.00;2.20;;;;;;;;;;5033609;28;20204;-73
2023/02/04 10:16:20;;;;;;;3.27;2.00;;;;;;;;;;5030860;28;20771;-73
2023/02/04 10:18:45;;;;;;;3.50;2.10;;;;;;;;;;5030104;28;20818;-73
2023/02/04 10:21:19;;;;;;;3.80;2.30;;;;;;;;;;5033343;28;20415;-73
2023/02/04 10:23:46;;;;;;;4.10;2.43;;;;;;;;;;5031715;28;20203;-73
2023/02/04 10:26:12;;;;;;;3.23;2.00;;;;;;;;;;5032522;28;20407;-73
2023/02/04 10:28:39;;;;;;;3.60;2.03;;;;;;;;;;5014347;28;20821;-73
2023/02/04 10:31:07;;;;;;;2.60;2.13;;;;;;;;;;5032816;28;20255;-73
2023/02/04 10:33:34;;;;;;;3.33;2.30;;;;;;;;;;5032443;28;20463;-73
2023/02/04 10:35:59;;;;;;;3.40;2.30;;;;;;;;;;5015154;28;20455;-73
2023/02/04 10:38:24;;;;;;;4.93;2.30;;;;;;;;;;5013676;28;20485;-73
2023/02/04 10:41:00;;;;;;;2.53;2.07;;;;;;;;;;5030535;28;20183;-73
2023/02/04 10:43:25;;;;;;;3.00;2.40;;;;;;;;;;5030397;28;20187;-74
2023/02/04 10:45:55;;;;;;;3.57;1.80;;;;;;;;;;5032867;28;20469;-74
2023/02/04 10:48:21;;;;;;;3.27;2.10;;;;;;;;;;5030231;28;20661;-72
2023/02/04 10:50:47;;;;;;;3.50;2.30;;;;;;;;;;5021564;22;20491;-70
2023/02/04 10:55:58;;;;;;;2.83;2.00;;;;;;;;;;5010041;28;20631;-71
2023/02/04 10:58:26;;;;;;;4.23;2.63;;;;;;;;;;5008515;28;20424;-71
2023/02/04 11:00:52;;;;;;;3.90;2.03;;;;;;;;;;5009593;28;20197;-71
2023/02/04 11:03:17;;;;;;;5.13;2.00;;;;;;;;;;4994381;28;20983;-71
2023/02/04 11:05:42;;;;;;;4.40;2.20;;;;;;;;;;5011382;28;20173;-71
2023/02/04 11:08:18;;;;;;;2.30;2.07;;;;;;;;;;5009909;28;20850;-71
2023/02/04 11:10:43;;;;;;;2.43;1.80;;;;;;;;;;5011247;28;20201;-71
2023/02/04 11:13:19;;;;;;;3.20;1.70;;;;;;;;;;5011913;28;20850;-71
2023/02/04 11:15:46;;;;;;;4.67;2.17;;;;;;;;;;5011865;28;20260;-71
2023/02/04 11:18:20;;;;;;;2.63;1.80;;;;;;;;;;5010762;28;20779;-71
2023/02/04 11:20:49;;;;;;;4.70;1.83;;;;;;;;;;5011920;28;20435;-71
2023/02/04 11:23:15;;;;;;;5.40;2.30;;;;;;;;;;5011727;28;20416;-71
2023/02/04 11:25:40;;;;;;;3.50;2.67;;;;;;;;;;4994450;28;20514;-71
2023/02/04 11:28:23;;;;;;;7.93;2.80;;;;;;;;;;5010432;28;20188;-71
2023/02/04 11:30:57;;;;;;;4.03;2.40;;;;;;;;;;5011402;28;20203;-71
2023/02/04 11:33:23;;;;;;;4.37;2.60;;;;;;;;;;5010732;28;20506;-71
2023/02/04 11:36:03;;;;;;;5.87;2.00;;;;;;;;;;5010887;28;20419;-71
2023/02/04 11:38:29;;;;;;;3.70;2.30;;;;;;;;;;5008377;28;20420;-71
2023/02/04 11:40:55;;;;;;;2.97;1.77;;;;;;;;;;5010958;28;20830;-69
2023/02/04 11:43:21;;;;;;;2.83;1.87;;;;;;;;;;5008769;28;20962;-69
2023/02/04 11:45:46;;;;;;;4.37;2.37;;;;;;;;;;5010804;28;20503;-69
2023/02/04 11:48:16;;;;;;;5.30;1.87;;;;;;;;;;5010051;28;20246;-69
2023/02/04 11:50:41;;;;;;;3.53;2.33;;;;;;;;;;5010525;28;20252;-71
2023/02/04 11:53:10;;;;;;;5.73;2.70;;;;;;;;;;5010533;28;20507;-69
2023/02/04 11:55:41;;;;;;;3.83;2.10;;;;;;;;;;5011013;28;20219;-69
2023/02/04 11:58:12;;;;;;;4.63;1.80;;;;;;;;;;5010313;28;20416;-69
2023/02/04 12:00:38;;;;;;;4.03;2.10;;;;;;;;;;4994161;28;20518;-69
2023/02/04 12:03:10;;;;;;;4.50;1.60;;;;;;;;;;5009733;28;20500;-69
2023/02/04 12:05:36;;;;;;;2.83;2.33;;;;;;;;;;5010818;28;20173;-69
2023/02/04 12:08:08;;;;;;;3.10;2.00;;;;;;;;;;5008619;28;20850;-69
2023/02/04 12:10:34;;;;;;;3.33;1.80;;;;;;;;;;5012021;28;20216;-69
2023/02/04 12:12:59;;;;;;;2.80;2.10;;;;;;;;;;5006780;28;20475;-69
2023/02/04 12:15:31;;;;;;;3.63;1.70;;;;;;;;;;5011625;28;20203;-69
2023/02/04 12:18:04;;;;;;;3.33;1.70;;;;;;;;;;5008788;28;20176;-69
2023/02/04 12:20:29;;;;;;;3.17;2.20;;;;;;;;;;5008408;28;20431;-69
2023/02/04 12:22:55;;;;;;;4.00;2.17;;;;;;;;;;5010478;28;20423;-69
2023/02/04 12:25:20;;;;;;;2.50;1.90;;;;;;;;;;5010399;28;20196;-69
2023/02/04 12:27:45;;;;;;;2.97;2.03;;;;;;;;;;5009717;28;20191;-69
2023/02/04 12:30:11;;;;;;;4.00;2.90;;;;;;;;;;5010073;28;20201;-69
2023/02/04 12:32:36;;;;;;;3.67;1.87;;;;;;;;;;4993246;28;20209;-69
2023/02/04 12:35:02;;;;;;;2.40;1.57;;;;;;;;;;5010113;28;20177;-69
2023/02/04 12:37:27;;;;;;;2.40;1.77;;;;;;;;;;5009442;28;20547;-69
2023/02/04 12:39:52;;;;;;;3.50;1.97;;;;;;;;;;5007482;28;20192;-69
2023/02/04 12:42:18;;;;;;;4.13;1.93;;;;;;;;;;5009917;28;20193;-69
2023/02/04 12:44:43;;;;;;;5.50;2.13;;;;;;;;;;4989104;28;20184;-68
2023/02/04 12:47:08;;;;;;;2.23;2.00;;;;;;;;;;5010152;28;20648;-69
2023/02/04 12:49:33;;;;;;;6.40;2.30;;;;;;;;;;5009532;28;20216;-68
2023/02/04 12:52:01;;;;;;;2.97;1.73;;;;;;;;;;5009489;28;20613;-69
2023/02/04 12:54:26;;;;;;;3.37;1.93;;;;;;;;;;5010885;28;20181;-68
2023/02/04 12:56:52;;;;;;;3.80;1.90;;;;;;;;;;5009926;28;20475;-67
2023/02/04 12:59:17;;;;;;;3.30;2.07;;;;;;;;;;4987483;28;20279;-68
2023/02/04 13:01:42;;;;;;;3.37;2.23;;;;;;;;;;4994605;28;20428;-68
2023/02/04 13:04:08;;;;;;;3.33;1.90;;;;;;;;;;5013143;28;20177;-68
2023/02/04 13:06:33;;;;;;;2.87;2.10;;;;;;;;;;5012714;28;20195;-68
2023/02/04 13:08:58;;;;;;;2.00;1.70;;;;;;;;;;5012979;28;20196;-68
2023/02/04 13:11:23;;;;;;;3.87;1.50;;;;;;;;;;5014739;28;20649;-68
2023/02/04 13:13:49;;;;;;;3.23;1.90;;;;;;;;;;5014575;28;20211;-68
2023/02/04 13:16:15;;;;;;;3.87;1.90;;;;;;;;;;5013309;28;20192;-69
2023/02/04 13:18:40;;;;;;;4.53;1.83;;;;;;;;;;4995832;28;20630;-69
2023/02/04 13:21:05;;;;;;;2.60;1.70;;;;;;;;;;5013700;28;20489;-69
2023/02/04 13:23:31;;;;;;;2.60;1.67;;;;;;;;;;5013997;28;20181;-69
2023/02/04 13:25:56;;;;;;;2.67;1.80;;;;;;;;;;5013628;28;20660;-69
2023/02/04 13:28:21;;;;;;;2.40;1.93;;;;;;;;;;5013129;28;20237;-69
2023/02/04 13:30:46;;;;;;;4.47;2.23;;;;;;;;;;5012908;28;20288;-69
2023/02/04 13:33:12;;;;;;;4.53;2.10;;;;;;;;;;5012565;28;20205;-68
2023/02/04 13:35:37;;;;;;;2.20;1.60;;;;;;;;;;5012704;28;20316;-68
2023/02/04 13:38:02;;;;;;;2.70;1.80;;;;;;;;;;5009818;28;20227;-69
2023/02/04 13:40:28;;;;;;;3.60;1.60;;;;;;;;;;4996237;28;20193;-68
2023/02/04 13:42:53;;;;;;;3.00;1.83;;;;;;;;;;5013603;28;20180;-68
2023/02/04 13:45:18;;;;;;;2.67;2.03;;;;;;;;;;5012891;28;20662;-69
2023/02/04 13:47:43;;;;;;;3.23;1.77;;;;;;;;;;5012398;28;20250;-69
2023/02/04 13:50:09;;;;;;;3.30;1.83;;;;;;;;;;5012149;28;20217;-69
2023/02/04 13:52:34;;;;;;;2.03;1.53;;;;;;;;;;5013728;28;20291;-69
2023/02/04 13:54:59;;;;;;;3.47;1.70;;;;;;;;;;5012690;28;20595;-69
2023/02/04 13:57:25;;;;;;;2.60;1.67;;;;;;;;;;5012900;28;20173;-69
2023/02/04 13:59:50;;;;;;;2.80;2.03;;;;;;;;;;4995110;28;20295;-69
2023/02/04 14:02:15;;;;;;;2.27;1.80;;;;;;;;;;4996339;28;20227;-68
2023/02/04 14:04:42;;;;;;;2.67;1.63;;;;;;;;;;5011483;28;20177;-69
2023/02/04 14:07:08;;;;;;;2.53;1.77;;;;;;;;;;5012086;28;20213;-68
2023/02/04 14:09:33;;;;;;;1.90;1.50;;;;;;;;;;5013123;28;20990;-68
2023/02/04 14:11:58;;;;;;;4.13;2.30;;;;;;;;;;5012806;28;20292;-69
2023/02/04 14:14:23;;;;;;;3.43;2.03;;;;;;;;;;5013239;28;20205;-69
2023/02/04 14:16:49;;;;;;;2.03;1.77;;;;;;;;;;5012855;28;20557;-69
2023/02/04 14:19:14;;;;;;;2.37;1.60;;;;;;;;;;5012515;28;20200;-68
2023/02/04 14:21:39;;;;;;;4.93;1.50;;;;;;;;;;5012736;28;20269;-68
2023/02/04 14:24:05;;;;;;;2.60;1.77;;;;;;;;;;5011589;28;20265;-68
2023/02/04 14:26:30;;;;;;;1.90;1.60;;;;;;;;;;5013631;28;20205;-68
2023/02/04 14:28:55;;;;;;;2.17;1.60;;;;;;;;;;5011752;28;20284;-68
2023/02/04 14:31:21;;;;;;;1.77;1.47;;;;;;;;;;5012338;28;20231;-68
2023/02/04 14:33:46;;;;;;;3.27;1.87;;;;;;;;;;5012823;28;20197;-69